Latest Weather Observations for Taree Airport

IDN60801

Issued at 7:35 pm EST Thursday 17 April 2014 (issued every 30 minutes, with the page automatically refreshed every 10 minutes)

About weather observations | Map of weather stations | Latest weather observations for NSW | Other Formats
Station Details ID: 060141 Name: TAREE AIRPORT AWS Lat: -31.89 Lon: 152.51 Height: 8.0 m
Data from the previous 72 hours. | See also: Recent months at Taree Airport
Date/Time
EST
Temp
°C
App
Temp
°C
Dew
Point
Rel
Hum
%
Delta-T
°C
Wind Press
QNH
hPa
Press
MSL
hPa
Rain
since 9 am
mm
Dir
 
Spd
km/h
Gust
km/h
Spd
kts
Gust
kts
17/07:30pm 17.7 17.1 13.6 77 2.3 W 9 11 5 6 1018.2 - 0.0
17/07:00pm 17.8 17.3 13.7 77 2.3 SW 9 11 5 6 1017.9 - 0.0
17/06:30pm 18.2 17.4 13.9 76 2.5 SSW 11 13 6 7 1017.7 - 0.0
17/06:00pm 19.0 17.3 13.6 71 3.1 SSW 15 20 8 11 1017.3 1017.2 0.0
17/05:30pm 19.6 16.9 13.5 68 3.5 S 20 30 11 16 1017.2 - 0.0
17/05:00pm 20.0 18.6 14.4 70 3.3 S 15 22 8 12 1016.9 - 0.0
17/04:30pm 20.8 18.9 14.2 66 3.8 S 17 24 9 13 1016.5 - 0.0
17/04:00pm 20.6 19.0 14.0 66 3.8 S 15 26 8 14 1016.4 - 0.0
17/03:30pm 22.4 20.7 12.6 54 5.6 SSW 13 17 7 9 1016.2 - 0.0
17/03:00pm 22.7 19.5 12.0 50 6.0 SSW 20 28 11 15 1016.3 1016.2 0.0
17/02:30pm 23.6 20.5 11.6 47 6.8 SW 19 26 10 14 1016.2 - 0.0
17/02:00pm 23.5 20.5 11.9 48 6.6 SW 19 30 10 16 1016.3 - 0.0
17/01:30pm 22.4 19.1 11.5 50 6.1 SSW 20 30 11 16 1016.5 - 0.0
17/01:00pm 23.2 20.9 11.9 49 6.4 WSW 15 26 8 14 1016.6 - 0.0
17/12:30pm 23.7 21.4 13.0 51 6.2 WSW 17 26 9 14 1016.8 - 0.0
17/12:00pm 22.7 20.2 12.3 52 5.9 SW 17 28 9 15 1017.3 1017.2 0.0
17/11:30am 22.2 18.5 11.6 51 5.9 WSW 22 33 12 18 1017.9 - 0.0
17/11:00am 21.4 18.2 12.0 55 5.3 WSW 20 32 11 17 1018.2 - 0.0
17/10:30am 20.7 19.3 13.4 63 4.2 W 13 19 7 10 1018.4 - 0.0
17/10:00am 19.7 17.1 12.0 61 4.3 W 17 22 9 12 1018.4 - 0.0
17/09:30am 19.4 16.4 11.9 62 4.2 W 19 28 10 15 1018.5 - 0.0
17/09:00am 19.2 16.7 12.2 64 3.9 W 17 26 9 14 1018.5 1018.4 2.8
17/08:30am 18.2 16.2 12.6 70 3.1 W 15 20 8 11 1018.5 - 2.8
17/08:00am 16.9 15.2 12.6 76 2.4 W 13 17 7 9 1018.4 - 2.8
17/07:30am 16.1 15.2 12.5 79 2.0 W 9 13 5 7 1018.2 - 2.8
17/07:00am 15.5 13.8 12.3 81 1.7 WNW 13 19 7 10 1017.8 - 2.8
17/06:30am 14.9 13.1 12.2 84 1.5 WNW 13 19 7 10 1017.4 - 2.8
17/06:00am 15.0 13.3 12.3 84 1.5 W 13 19 7 10 1017.2 1017.1 2.8
17/05:30am 15.4 13.3 12.5 83 1.6 W 15 20 8 11 1017.1 - 2.8
17/05:00am 15.5 13.5 12.8 84 1.5 W 15 22 8 12 1017.0 - 2.8
17/04:30am 16.1 14.2 13.0 82 1.7 WSW 15 20 8 11 1016.8 - 2.8
17/04:00am 16.6 14.4 13.3 81 1.8 W 17 26 9 14 1016.4 - 2.8
17/03:30am 16.3 14.1 13.4 83 1.6 W 17 24 9 13 1016.5 - 2.8
17/03:00am 16.1 14.3 13.4 84 1.5 W 15 22 8 12 1016.5 1016.4 2.8
17/02:30am 15.9 15.2 13.2 84 1.5 WSW 9 11 5 6 1016.6 - 2.8
17/02:00am 15.5 14.8 13.2 86 1.3 WNW 9 13 5 7 1016.6 - 2.8
17/01:30am 15.5 14.8 13.2 86 1.3 WNW 9 11 5 6 1017.0 - 2.8
17/01:00am 15.8 14.8 13.3 85 1.4 WNW 11 13 6 7 1017.2 - 2.8
17/12:30am 16.4 15.1 13.7 84 1.5 W 13 19 7 10 1017.5 - 2.8
17/12:00am 16.3 15.0 13.8 85 1.4 W 13 17 7 9 1017.5 1017.4 2.8
 
Date/Time
EST
Temp
°C
App
Temp
°C
Dew
Point
Rel
Hum
%
Delta-T
°C
Wind Press
QNH
hPa
Press
MSL
hPa
Rain
since 9 am
mm
Dir
 
Spd
km/h
Gust
km/h
Spd
kts
Gust
kts
16/11:30pm 16.6 15.4 13.9 84 1.5 W 13 17 7 9 1017.7 - 2.8
16/11:00pm 16.2 15.3 13.7 85 1.4 W 11 13 6 7 1017.7 - 2.8
16/10:30pm 16.2 15.3 13.7 85 1.4 WNW 11 15 6 8 1017.8 - 2.8
16/10:00pm 16.4 15.9 13.7 84 1.5 NW 9 13 5 7 1017.9 - 2.8
16/09:30pm 16.6 16.1 13.7 83 1.6 WNW 9 11 5 6 1017.9 - 2.8
16/09:00pm 16.9 16.2 14.2 84 1.5 W 11 15 6 8 1017.8 1017.7 2.8
16/08:30pm 16.3 15.5 14.0 86 1.3 W 11 13 6 7 1017.6 - 2.8
16/08:00pm 16.0 15.9 14.0 88 1.1 NNW 7 9 4 5 1017.5 - 2.8
16/07:30pm 15.8 15.8 13.6 87 1.2 NW 6 7 3 4 1017.3 - 2.8
16/07:00pm 17.4 17.4 14.3 82 1.8 W 7 11 4 6 1017.2 - 2.8
16/06:30pm 18.0 16.9 14.3 79 2.1 WSW 13 20 7 11 1016.9 - 2.8
16/06:00pm 18.5 17.4 14.2 76 2.5 WSW 13 19 7 10 1016.8 1016.7 2.8
16/05:30pm 19.2 17.3 14.2 73 2.9 WSW 17 26 9 14 1016.6 - 2.8
16/05:00pm 19.4 17.5 14.2 72 3.0 SW 17 24 9 13 1016.4 - 2.8
16/04:30pm 19.5 17.9 15.0 75 2.6 WSW 17 26 9 14 1016.2 - 2.8
16/04:00pm 19.7 18.9 16.0 79 2.2 WSW 15 22 8 12 1016.0 - 2.8
16/03:30pm 18.0 18.3 16.0 88 1.2 W 9 13 5 7 1016.1 - 2.8
16/03:00pm 19.8 17.8 15.0 74 2.8 SW 19 33 10 18 1015.8 1015.7 2.2
16/02:30pm 19.2 19.5 17.0 87 1.3 SSW 11 15 6 8 1016.0 - 2.2
16/02:06pm 19.3 15.2 15.0 76 2.5 S 30 48 16 26 1016.2 - 0.4
16/02:00pm 21.5 19.7 13.2 59 4.8 SW 15 26 8 14 1015.8 - 0.0
16/01:30pm 22.0 19.3 13.6 59 4.9 SSW 20 28 11 15 1015.9 - 0.0
16/01:00pm 22.2 20.5 14.8 63 4.4 SW 17 22 9 12 1016.3 - 0.0
16/12:30pm 21.3 19.2 14.7 66 3.9 WSW 19 28 10 15 1016.6 - 0.0
16/12:00pm 20.8 18.7 14.7 68 3.6 WSW 19 30 10 16 1017.0 1016.9 0.0
16/11:30am 21.6 18.6 14.7 65 4.1 SW 24 32 13 17 1017.2 - 0.0
16/11:00am 21.7 18.9 14.4 63 4.3 SW 22 32 12 17 1017.3 - 0.0
16/10:30am 21.3 19.0 14.2 64 4.1 WSW 19 26 10 14 1017.5 - 0.0
16/10:00am 21.0 19.2 14.4 66 3.9 WSW 17 28 9 15 1017.8 - 0.0
16/09:30am 19.7 17.4 14.1 70 3.2 WSW 19 30 10 16 1017.8 - 0.0
16/09:00am 19.7 18.6 15.4 76 2.5 W 15 22 8 12 1017.5 1017.4 1.4
16/08:30am 18.5 16.9 15.0 80 2.0 W 17 28 9 15 1017.3 - 1.4
16/08:00am 17.4 16.3 15.4 88 1.2 W 15 22 8 12 1017.5 - 1.4
16/07:30am 16.2 15.3 14.9 92 0.7 WNW 13 20 7 11 1017.3 - 1.4
16/07:00am 15.8 15.3 15.0 95 0.5 WNW 11 17 6 9 1017.1 - 1.4
16/06:30am 15.6 14.4 15.0 96 0.3 WNW 15 26 8 14 1017.1 - 1.4
16/06:00am 15.6 14.0 15.0 96 0.3 WNW 17 24 9 13 1016.9 1016.8 1.4
16/05:30am 15.8 15.4 15.2 96 0.3 W 11 15 6 8 1017.1 - 1.0
16/05:00am 15.9 15.5 15.1 95 0.5 W 11 13 6 7 1017.0 - 0.8
16/04:30am 15.9 15.0 14.9 94 0.6 W 13 19 7 10 1016.8 - 0.2
16/04:00am 16.0 15.5 14.9 93 0.6 WNW 11 17 6 9 1016.6 - 0.2
16/03:30am 16.6 16.3 14.4 87 1.3 WNW 9 13 5 7 1016.7 - 0.0
16/03:00am 16.9 15.8 14.2 84 1.5 WSW 13 17 7 9 1016.7 1016.6 0.0
16/02:30am 17.0 15.9 14.3 84 1.5 W 13 19 7 10 1016.4 - 0.0
16/02:00am 17.0 15.8 14.1 83 1.7 W 13 19 7 10 1016.4 - 0.0
16/01:30am 16.9 15.8 14.2 84 1.5 W 13 20 7 11 1016.7 - 0.0
16/01:00am 16.8 16.0 13.9 83 1.6 W 11 17 6 9 1017.2 - 0.0
16/12:30am 16.9 16.0 13.8 82 1.8 W 11 17 6 9 1017.5 - 0.0
16/12:00am 16.6 16.1 13.7 83 1.6 NW 9 11 5 6 1017.5 1017.4 0.0
 
Date/Time
EST
Temp
°C
App
Temp
°C
Dew
Point
Rel
Hum
%
Delta-T
°C
Wind Press
QNH
hPa
Press
MSL
hPa
Rain
since 9 am
mm
Dir
 
Spd
km/h
Gust
km/h
Spd
kts
Gust
kts
15/11:30pm 16.8 16.6 13.5 81 1.9 W 7 11 4 6 1017.6 - 0.0
15/11:00pm 16.9 16.0 13.6 81 1.9 W 11 13 6 7 1017.8 - 0.0
15/10:30pm 16.6 15.6 13.5 82 1.7 WNW 11 13 6 7 1018.0 - 0.0
15/10:00pm 16.8 15.9 13.7 82 1.8 WNW 11 17 6 9 1018.0 - 0.0
15/09:30pm 16.7 15.4 13.6 82 1.7 W 13 19 7 10 1018.3 - 0.0
15/09:00pm 17.1 15.8 13.6 80 2.0 W 13 17 7 9 1018.4 1018.3 0.0
15/08:30pm 17.8 16.1 13.5 76 2.4 WSW 15 26 8 14 1018.3 - 0.0
15/08:00pm 18.3 15.8 13.4 73 2.8 SW 19 30 10 16 1018.2 - 0.0
15/07:30pm 18.1 15.6 13.6 75 2.6 SW 19 28 10 15 1018.0 - 0.0
15/07:00pm 18.1 15.6 13.6 75 2.6 SW 19 26 10 14 1017.9 - 0.0
15/06:30pm 18.3 17.2 14.2 77 2.4 WSW 13 20 7 11 1017.7 - 0.0
15/06:00pm 18.4 17.2 14.1 76 2.5 SW 13 20 7 11 1017.6 1017.5 0.0
15/05:30pm 18.4 16.9 14.3 77 2.4 WSW 15 22 8 12 1017.4 - 0.0
15/05:00pm 18.6 16.6 13.9 74 2.7 SW 17 26 9 14 1017.3 - 0.0
15/04:30pm 19.0 15.5 13.4 70 3.2 SSW 24 33 13 18 1017.0 - 0.0
15/04:00pm 19.7 17.5 14.5 72 3.0 SSW 19 28 10 15 1016.9 - 0.0
15/03:30pm 20.3 18.2 14.7 70 3.3 SSW 19 28 10 15 1016.7 - 0.0
15/03:00pm 19.9 16.6 14.0 69 3.4 S 24 33 13 18 1016.8 1016.7 0.0
15/02:30pm 21.6 19.7 13.0 58 4.9 SSE 15 19 8 10 1016.7 - 0.0
15/02:00pm 22.3 21.1 13.9 59 4.9 SSE 13 19 7 10 1016.5 - 0.0
15/01:30pm 22.6 21.3 12.5 53 5.7 S 11 17 6 9 1016.5 - 0.0
15/01:00pm 22.7 20.7 11.4 49 6.3 SE 13 20 7 11 1016.8 - 0.0
15/12:30pm 22.9 20.3 10.7 46 6.7 SE 15 20 8 11 1017.2 - 0.0
15/12:00pm 22.8 20.5 10.3 45 6.8 S 13 22 7 12 1017.7 1017.6 0.0
15/11:30am 23.0 21.6 13.5 55 5.5 SSE 13 20 7 11 1018.2 - 0.0
15/11:00am 22.9 21.0 11.9 50 6.2 S 13 19 7 10 1018.5 - 0.0
15/10:30am 22.1 19.6 11.2 50 6.0 SSW 15 20 8 11 1018.8 - 0.0
15/10:00am 21.4 19.0 12.8 58 4.9 SSW 17 22 9 12 1019.0 - 0.0
15/09:30am 20.5 19.0 14.2 67 3.7 WSW 15 19 8 10 1019.2 - 0.0
15/09:00am 19.9 18.5 14.5 71 3.1 W 15 22 8 12 1019.2 1019.1 1.8
15/08:30am 19.0 17.7 14.9 77 2.4 W 15 20 8 11 1019.1 - 1.8
15/08:00am 17.7 16.7 14.6 82 1.8 W 13 19 7 10 1019.1 - 1.6
15/07:30am 16.2 15.1 14.2 88 1.1 WNW 13 17 7 9 1018.9 - 1.6
15/07:00am 15.2 15.2 14.2 94 0.6 WNW 7 9 4 5 1018.9 - 1.6
15/06:30am 14.7 14.5 13.7 94 0.6 NW 7 9 4 5 1018.7 - 1.6
15/06:00am 14.8 14.3 13.8 94 0.6 NW 9 13 5 7 1018.4 1018.3 1.6
15/05:30am 15.0 14.6 14.2 95 0.5 WNW 9 11 5 6 1018.4 - 1.6
15/05:00am 15.0 15.0 14.2 95 0.5 WNW 7 9 4 5 1018.3 - 1.6
15/04:30am 15.1 14.3 14.1 94 0.6 NW 11 13 6 7 1018.0 - 1.6
15/04:00am 15.3 15.0 14.3 94 0.6 WNW 9 11 5 6 1018.0 - 1.6
15/03:30am 15.4 14.7 14.3 93 0.6 NW 11 13 6 7 1018.2 - 1.6
15/03:00am 15.6 15.0 14.5 93 0.6 W 11 15 6 8 1018.6 1018.5 1.6
15/02:30am 15.8 14.9 14.8 94 0.6 W 13 17 7 9 1018.6 - 1.6
15/02:00am 16.2 15.4 15.2 94 0.6 SW 13 17 7 9 1019.1 - 1.6
15/01:30am 15.8 17.4 14.8 94 0.6 CALM 0 4 0 2 1018.7 - 1.4
15/01:00am 16.0 15.9 14.9 93 0.6 NW 9 11 5 6 1019.0 - 1.4
15/12:30am 16.0 15.9 14.9 93 0.6 WNW 9 11 5 6 1019.1 - 1.4
15/12:00am 16.4 17.2 14.8 90 0.9 SSW 4 9 2 5 1019.4 1019.3 1.4
 
Date/Time
EST
Temp
°C
App
Temp
°C
Dew
Point
Rel
Hum
%
Delta-T
°C
Wind Press
QNH
hPa
Press
MSL
hPa
Rain
since 9 am
mm
Dir
 
Spd
km/h
Gust
km/h
Spd
kts
Gust
kts
14/11:30pm 16.6 15.3 14.8 89 1.0 SSW 15 20 8 11 1019.7 - 0.8
14/11:00pm 17.3 16.4 14.8 85 1.4 SW 13 17 7 9 1019.6 - 0.2
14/10:30pm 17.4 16.4 14.5 83 1.7 W 13 17 7 9 1019.4 - 0.2
14/10:00pm 17.7 16.6 14.2 80 2.0 WSW 13 15 7 8 1019.7 - 0.2
14/09:30pm 17.9 16.8 14.2 79 2.1 WSW 13 19 7 10 1019.8 - 0.2
14/09:00pm 17.8 17.0 14.1 79 2.1 W 11 15 6 8 1019.4 1019.3 0.2
14/08:30pm 18.0 17.5 13.9 77 2.3 WSW 9 15 5 8 1019.4 - 0.2
14/08:00pm 18.0 16.8 14.1 78 2.2 SW 13 20 7 11 1019.3 - 0.2

Other Formats:

Comma delimited format used in spreadsheet applications
http://www.bom.gov.au/fwo/IDN60801/IDN60801.95784.axf

JavaScript Object Notation format (JSON) in row-major order
http://www.bom.gov.au/fwo/IDN60801/IDN60801.95784.json